Estació municipal de St. Hilari Sacalm (La Selva, Guilleries)

Consulta les dades en temps real de l'estació municipal de St. Hilari Sacalm





Hora UTC 08:15
Temperatura 28.1 ºC
Humitat 46.5 %
Pressió 1024.7 hPa
Pluja 0.0 mm
Velocitat vent 0.0 km/h
Direcció vent NNE
Radiació solar 451.7 W/m²

Webcam

Dades diàries 2026-09-06



Hora UTC (hivern +1h; estiu +2h)
Temperatura (ºC) Humitat (%) Pressió (hPa) Velocitat vent (km/h) Precipitació (mm) Radiació solar (W/m²)
Hora UTC Aire Humitat Pressió Vel. Dir. Vel. Max Dir. Intent. màx 5 min. Rad. Sol.
00:05 23.4 53.2 1024.7 0.0 NNE 0.0 SSW 0.0 0.1
00:10 23.7 52.5 1024.8 2.6 SW 11.5 SSW 0.0 0.1
00:15 23.6 52.7 1024.8 2.2 SW 11.5 SW 0.0 0.1
00:20 23.4 53.9 1024.7 1.5 WSW 8.8 WSW 0.0 0.1
00:25 23.6 53.7 1024.7 2.6 W 8.8 WNW 0.0 0.1
00:30 24.0 52.7 1024.6 4.9 WNW 14.2 WNW 0.0 0.1
00:35 24.3 51.9 1024.6 3.5 W 11.5 W 0.0 0.1
00:40 24.3 52.2 1024.6 1.1 WSW 6.1 WSW 0.0 0.1
00:45 24.1 52.7 1024.6 0.1 WSW 6.1 W 0.0 0.1
00:50 24.0 53.0 1024.5 0.6 NW 8.8 NW 0.0 0.1
00:55 24.2 52.5 1024.5 2.1 WNW 8.8 NNW 0.0 0.1
01:00 24.2 52.0 1024.5 4.2 WNW 11.5 W 0.0 0.1
01:05 24.2 52.0 1024.4 4.8 WNW 11.5 WNW 0.0 0.2
01:10 24.1 52.0 1024.4 1.7 WNW 14.2 W 0.0 0.1
01:15 24.2 51.6 1024.4 5.4 NW 14.2 WNW 0.0 0.1
01:20 24.4 50.6 1024.3 8.5 NW 16.9 NW 0.0 0.1
01:25 24.6 50.0 1024.3 9.4 NW 19.6 NNW 0.0 0.2
01:30 24.7 49.7 1024.3 3.3 NW 14.2 WNW 0.0 0.1
01:35 24.6 50.2 1024.3 3.5 NW 11.5 N 0.0 0.1
01:40 24.5 50.4 1024.3 4.3 NW 19.6 N 0.0 0.1
01:45 24.5 50.4 1024.3 2.6 WNW 14.2 WSW 0.0 0.1
01:50 24.5 50.4 1024.3 5.1 NW 14.2 NNW 0.0 0.2
01:55 24.6 50.3 1024.3 6.2 NW 16.9 WNW 0.0 0.1
02:00 24.6 50.3 1024.3 7.3 NW 14.2 WNW 0.0 0.1
02:05 24.7 50.0 1024.3 5.7 NW 14.2 N 0.0 0.1
02:10 24.8 49.5 1024.2 6.6 NW 19.6 NW 0.0 0.1
02:15 24.8 49.2 1024.2 6.7 NW 16.9 NW 0.0 0.1
02:20 24.8 49.4 1024.2 6.8 NNW 14.2 WNW 0.0 0.1
02:25 24.8 49.5 1024.2 5.0 NNW 16.9 NNW 0.0 0.1
02:30 24.6 50.1 1024.1 5.1 NNW 14.2 NW 0.0 0.1
02:35 24.6 50.3 1024.1 8.4 NNW 19.6 NW 0.0 0.2
02:40 24.5 50.7 1024.1 6.7 NNW 16.9 NW 0.0 0.2
02:45 24.4 50.8 1024.1 9.0 NNW 19.6 NW 0.0 0.1
02:50 24.5 50.8 1024.1 8.2 NNW 16.9 NW 0.0 0.1
02:55 24.4 51.0 1024.1 8.4 NNW 22.3 NNW 0.0 0.1
03:00 24.6 50.6 1024.1 6.8 NNW 16.9 NNW 0.0 0.1
03:05 24.5 50.7 1024.1 7.9 NNW 16.9 NNW 0.0 0.1
03:10 24.6 50.6 1024.1 6.7 NNW 16.9 WNW 0.0 0.1
03:15 24.6 50.7 1024.1 2.5 NNW 14.2 W 0.0 0.1
03:20 24.7 50.1 1024.0 5.4 WNW 14.2 W 0.0 0.1
03:25 24.7 49.8 1024.0 2.2 W 11.5 W 0.0 0.1
03:30 24.5 50.1 1024.0 1.2 WNW 8.8 NW 0.0 0.1
03:35 24.4 50.1 1023.9 1.8 WNW 11.5 W 0.0 0.1
03:40 24.4 49.2 1023.9 3.7 WNW 11.5 NW 0.0 0.1
03:45 24.6 48.4 1023.9 4.9 NW 14.2 WNW 0.0 0.1
03:50 24.9 46.9 1023.8 3.9 WNW 19.6 WNW 0.0 0.1
03:55 24.9 46.8 1023.8 0.0 NNE 0.0 WSW 0.0 0.1
04:00 24.7 47.0 1023.8 0.0 NNE 0.0 SSE 0.0 0.1
04:05 24.8 45.7 1023.8 0.0 NNE 0.0 SE 0.0 0.1
04:10 25.0 43.7 1023.8 0.0 NNE 0.0 SSE 0.0 0.1
04:15 25.6 39.9 1023.8 0.0 NNE 0.0 S 0.0 0.2
04:20 25.8 39.9 1023.8 0.0 NNE 0.0 SSW 0.0 0.1
04:25 25.6 40.7 1023.8 0.0 NNE 0.0 SW 0.0 0.1
04:30 25.4 41.6 1023.8 0.0 NNE 0.0 SW 0.0 0.1
04:35 25.3 42.4 1023.8 0.0 NNE 0.0 SSW 0.0 0.1
04:40 25.1 43.3 1023.7 0.0 NNE 0.0 S 0.0 0.1
04:45 24.9 44.0 1023.7 0.0 NNE 0.0 SSW 0.0 0.1
04:50 24.7 44.8 1023.7 0.0 NNE 0.0 S 0.0 0.2
04:55 24.7 44.4 1023.7 0.0 NNE 0.0 SE 0.0 0.2
05:00 25.2 43.5 1023.7 0.0 NNE 0.0 S 0.0 0.2
05:05 24.9 44.2 1023.8 0.0 NNE 0.0 WSW 0.0 0.3
05:10 24.6 44.3 1023.8 0.0 NNE 0.0 WSW 0.0 0.7
05:15 24.7 45.0 1023.9 0.0 NNE 0.0 ENE 0.0 1.5
05:20 24.4 46.2 1023.9 0.0 NNE 0.0 NE 0.0 3.0
05:25 24.3 47.1 1023.9 0.0 NNE 0.0 NE 0.0 5.1
05:30 24.1 48.1 1024.0 0.0 NNE 0.0 NE 0.0 8.2
05:35 23.7 49.2 1024.0 0.9 WNW 6.1 WNW 0.0 12.9
05:40 23.3 50.7 1024.0 0.1 W 3.4 W 0.0 17.5
05:45 22.8 52.6 1024.0 0.1 WSW 3.4 SW 0.0 24.0
05:50 22.4 53.8 1024.1 0.1 WSW 3.4 W 0.0 31.4
05:55 22.2 54.4 1024.1 0.1 NW 6.1 NW 0.0 46.5
06:00 22.3 53.6 1024.1 0.1 W 6.1 WNW 0.0 58.3
06:05 22.6 52.5 1024.1 0.3 W 6.1 W 0.0 70.2
06:10 23.1 51.4 1024.2 0.0 NNE 0.0 SW 0.0 83.0
06:15 23.5 50.4 1024.2 0.0 NNE 0.0 SW 0.0 97.0
06:20 23.9 49.7 1024.2 0.0 WSW 3.4 WSW 0.0 110.8
06:25 24.3 48.9 1024.3 0.0 NNE 0.0 SSW 0.0 124.7
06:30 24.7 48.4 1024.3 0.0 NNE 0.0 SW 0.0 138.5
06:35 24.8 48.3 1024.3 0.0 NNE 0.0 WSW 0.0 152.2
06:40 25.2 47.5 1024.4 0.0 NNE 0.0 SW 0.0 166.8
06:45 25.4 47.6 1024.4 0.0 NNE 0.0 SW 0.0 183.2
06:50 25.4 48.0 1024.4 0.0 NNE 0.0 SW 0.0 198.3
06:55 26.0 47.5 1024.4 0.0 NNE 0.0 SW 0.0 212.9
07:00 27.4 43.5 1024.4 0.0 NNE 0.0 SW 0.0 229.5
07:05 28.4 42.3 1024.4 0.0 NNE 0.0 SW 0.0 246.5
07:10 28.7 41.0 1024.4 0.0 NNE 0.0 SW 0.0 262.8
07:15 28.9 38.9 1024.5 0.0 NNE 0.0 SW 0.0 280.1
07:20 29.4 38.1 1024.5 0.0 NNE 0.0 SW 0.0 296.1
07:25 29.6 41.3 1024.5 0.0 NNE 0.0 E 0.0 311.8
07:30 29.3 41.6 1024.5 0.0 NNE 0.0 E 0.0 327.7
07:35 29.4 40.0 1024.5 0.0 NNE 0.0 E 0.0 344.2
07:40 29.5 38.2 1024.5 0.0 NNE 0.0 S 0.0 358.7
07:45 29.5 37.4 1024.5 0.0 SE 3.4 SE 0.0 348.6
07:50 29.4 40.2 1024.5 0.0 NNE 0.0 SE 0.0 386.4
07:55 28.9 43.9 1024.5 0.0 NNE 0.0 NE 0.0 399.3
08:00 28.5 45.6 1024.6 0.0 NNE 0.0 ENE 0.0 412.5
08:05 28.2 46.3 1024.6 0.0 NNE 0.0 NNE 0.0 425.6
08:10 28.2 46.6 1024.7 0.0 NNE 0.0 NNE 0.0 438.3
08:15 28.1 46.5 1024.7 0.0 NNE 0.0 NNE 0.0 451.7
Màxima 29.6 54.4 1024.8 9.4 NW 22.3 NNW 0.0 451.7
Mínima 20 37.4 1023.7
Total 0.0